createdAt,value
2022-10-07T00:08:17.944Z,98878.97
2022-10-07T00:18:20.355Z,98867.56
2022-10-07T00:28:24.444Z,98869.69
2022-10-07T00:38:27.299Z,98870.38
2022-10-07T00:48:32.843Z,98876.19
2022-10-07T00:58:38.098Z,98853.69
2022-10-07T01:08:41.329Z,98848.69
2022-10-07T01:19:14.809Z,98823.94
2022-10-07T01:29:29.872Z,98813.91
2022-10-07T01:39:38.645Z,98809.31
2022-10-07T01:49:40.923Z,98796.13
2022-10-07T02:00:06.122Z,98793.41
2022-10-07T02:10:28.872Z,98784.78
2022-10-07T02:20:36.158Z,98775.72
2022-10-07T02:30:40.494Z,98761.06
2022-10-07T02:41:10.150Z,98760.44
2022-10-07T02:51:21.325Z,98745.75
2022-10-07T03:01:29.460Z,98720.19
2022-10-07T03:11:31.768Z,98729.19
2022-10-07T03:21:34.263Z,98723.38
2022-10-07T03:31:37.099Z,98716.12
2022-10-07T03:41:39.329Z,98722.69
2022-10-07T03:51:41.620Z,98715.13
2022-10-07T04:01:43.945Z,98708.75
2022-10-07T04:11:46.174Z,98694.44
2022-10-07T04:21:48.832Z,98691.81
2022-10-07T04:31:51.148Z,98692.94
2022-10-07T04:41:54.983Z,98680.78
2022-10-07T04:51:57.231Z,98670.22
2022-10-07T05:01:59.583Z,98656.41
2022-10-07T05:12:01.949Z,98652.59
2022-10-07T05:22:04.532Z,98651.37
2022-10-07T05:32:07.027Z,98638.94
2022-10-07T05:42:09.801Z,98639.81
2022-10-07T05:52:12.183Z,98649.31
2022-10-07T06:02:16.515Z,98637.97
2022-10-07T06:12:37.728Z,98636.13
2022-10-07T06:22:40.660Z,98622.22
2022-10-07T06:32:42.981Z,98627.03
2022-10-07T06:42:45.452Z,98633.69
2022-10-07T06:52:47.788Z,98623.09
2022-10-07T07:02:50.347Z,98633.59
2022-10-07T07:12:54.572Z,98636.66
2022-10-07T07:22:57.096Z,98634.38
2022-10-07T07:33:06.326Z,98635.31
2022-10-07T07:43:09.138Z,98627.28
2022-10-07T07:53:11.513Z,98630.09
2022-10-07T08:03:14.219Z,98627.25
2022-10-07T08:13:16.880Z,98625.91
2022-10-07T08:23:19.563Z,98621.41
2022-10-07T08:33:23.179Z,98622.31
2022-10-07T08:43:25.955Z,98620.44
2022-10-07T08:53:34.696Z,98614.06
2022-10-07T09:03:51.967Z,98605.81
2022-10-07T09:14:05.566Z,98594.72
2022-10-07T09:24:41.127Z,98576.53
2022-10-07T09:34:54.839Z,98565.66
2022-10-07T09:45:02.472Z,98557.53
2022-10-07T09:55:39.245Z,98545.28
2022-10-07T10:05:52.847Z,98542.94
2022-10-07T10:15:56.072Z,98540.63
2022-10-07T10:26:32.494Z,98531.69
2022-10-07T10:36:44.351Z,98526.03
2022-10-07T10:46:59.438Z,98514.28
2022-10-07T10:57:39.751Z,98497.03
2022-10-07T11:07:51.440Z,98486.25
2022-10-07T11:17:59.820Z,98487.78
2022-10-07T11:28:15.513Z,98467.81
2022-10-07T11:38:29.851Z,98457.38
2022-10-07T11:48:44.529Z,98439.94
2022-10-07T11:58:56.556Z,98427.78
2022-10-07T12:09:19.409Z,98413.59
2022-10-07T12:19:24.081Z,98402.75
2022-10-07T12:29:34.315Z,98386.59
2022-10-07T12:39:37.978Z,98365.62
2022-10-07T12:49:43.125Z,98352.84
2022-10-07T13:00:08.615Z,98337.47
2022-10-07T13:10:41.385Z,98320.28
2022-10-07T13:20:56.422Z,98315.56
2022-10-07T13:31:31.871Z,98293.34
2022-10-07T13:41:36.666Z,98277.78
2022-10-07T13:51:42.622Z,98276.38
2022-10-07T14:01:56.947Z,98261.19
2022-10-07T14:12:16.019Z,98253.72
2022-10-07T14:22:27.455Z,98241.66
2022-10-07T14:32:48.844Z,98219.78
2022-10-07T14:42:54.561Z,98212.16
2022-10-07T14:52:58.730Z,98204.13
2022-10-07T15:03:03.109Z,98198.91
2022-10-07T15:13:11.024Z,98178.56
2022-10-07T15:23:16.274Z,98171.41
2022-10-07T15:33:18.763Z,98163.00
2022-10-07T15:43:21.243Z,98160.97
2022-10-07T15:53:25.081Z,98145.44
2022-10-07T16:03:28.738Z,98149.16
2022-10-07T16:13:31.622Z,98133.72
2022-10-07T16:23:35.305Z,98135.03
2022-10-07T16:33:37.818Z,98134.84
2022-10-07T16:43:40.559Z,98135.47
2022-10-07T16:53:45.431Z,98143.34
2022-10-07T17:03:50.131Z,98139.94
2022-10-07T17:13:52.733Z,98144.59
2022-10-07T17:23:58.588Z,98149.37
2022-10-07T17:34:03.628Z,98150.88
2022-10-07T17:44:11.891Z,98144.44
2022-10-07T17:54:15.378Z,98145.59
2022-10-07T18:04:22.450Z,98140.44
2022-10-07T18:14:49.772Z,98138.19
2022-10-07T18:24:57.476Z,98140.75
2022-10-07T18:34:59.968Z,98148.50
2022-10-07T18:45:02.494Z,98141.78
2022-10-07T18:55:05.744Z,98149.47
2022-10-07T19:05:08.415Z,98149.72
2022-10-07T19:15:11.101Z,98164.50
2022-10-07T19:25:31.982Z,98172.19
2022-10-07T19:35:35.203Z,98173.59
2022-10-07T19:45:39.603Z,98187.50
2022-10-07T19:55:45.698Z,98184.00
2022-10-07T20:05:47.945Z,98183.53
2022-10-07T20:15:50.554Z,98186.84
2022-10-07T20:25:52.896Z,98195.59
2022-10-07T20:35:55.292Z,98186.37
2022-10-07T20:45:57.833Z,98198.12
2022-10-07T20:56:04.323Z,98203.88
2022-10-07T21:06:07.113Z,98203.63
2022-10-07T21:16:09.734Z,98194.16
2022-10-07T21:26:12.625Z,98198.53
2022-10-07T21:36:24.885Z,98191.47
2022-10-07T21:46:29.972Z,98187.97
2022-10-07T21:56:35.268Z,98192.03
2022-10-07T22:06:55.974Z,98185.78
2022-10-07T22:16:58.207Z,98185.53
2022-10-07T22:27:01.605Z,98171.69
2022-10-07T22:37:04.711Z,98171.19
2022-10-07T22:47:06.909Z,98171.19
2022-10-07T22:57:09.136Z,98166.06
2022-10-07T23:07:11.449Z,98163.59
2022-10-07T23:17:13.912Z,98156.81
2022-10-07T23:27:16.300Z,98147.31
2022-10-07T23:37:18.707Z,98146.50
2022-10-07T23:47:22.872Z,98137.03
2022-10-07T23:57:25.252Z,98132.41
